Time;durP1;ratioP1;P1;durP2;ratioP2;P2;SDS_P1;SDS_P2;PMS_P1;PMS_P2;Temp;Humidity;BMP_temperature;BMP_pressure;BME280_temperature;BME280_humidity;BME280_pressure;Samples;Min_cycle;Max_cycle;Signal;HPM_P1;HPM_P2
2021/11/14 00:00:28;;;;;;;77.13;48.03;;;230.40;2252.80;;;;;;5009082;28;20116;-56
2021/11/14 00:02:56;;;;;;;71.30;43.10;;;205.50;2252.80;;;;;;5008809;28;20100;-56
2021/11/14 00:05:22;;;;;;;65.65;39.78;;;205.30;2252.80;;;;;;5008941;28;20065;-56
2021/11/14 00:07:48;;;;;;;56.67;37.97;;;205.20;2252.80;;;;;;5009372;28;20049;-56
2021/11/14 00:10:14;;;;;;;94.18;55.75;;;205.20;2252.80;;;;;;5009160;28;20550;-55
2021/11/14 00:12:41;;;;;;;120.90;70.18;;;205.20;2252.80;;;;;;5009060;28;20823;-55
2021/11/14 00:15:08;;;;;;;109.38;65.30;;;205.20;2252.80;;;;;;5008965;28;20392;-55
2021/11/14 00:17:34;;;;;;;103.35;61.78;;;205.30;2252.80;;;;;;5008699;28;20034;-54
2021/11/14 00:20:01;;;;;;;86.82;54.03;;;205.30;2252.80;;;;;;5009076;28;20037;-56
2021/11/14 00:22:27;;;;;;;101.70;59.92;;;205.30;2252.80;;;;;;5008993;28;20022;-55
2021/11/14 00:24:52;;;;;;;122.43;68.30;;;205.30;2252.80;;;;;;5009009;28;20030;-55
2021/11/14 00:27:18;;;;;;;100.22;55.88;;;205.40;2252.80;;;;;;5008943;28;20081;-56
2021/11/14 00:29:44;;;;;;;84.50;52.78;;;205.40;2252.80;;;;;;5008161;28;20034;-56
2021/11/14 00:32:10;;;;;;;57.70;32.90;;;205.40;2252.80;;;;;;5008874;28;20030;-55
2021/11/14 00:34:36;;;;;;;52.53;34.03;;;205.40;2252.80;;;;;;5007399;28;20056;-56
2021/11/14 00:37:03;;;;;;;47.95;31.25;;;205.50;2252.80;;;;;;5008778;28;20026;-56
2021/11/14 00:39:28;;;;;;;51.25;29.05;;;205.50;2252.80;;;;;;5008779;28;20388;-56
2021/11/14 00:41:54;;;;;;;49.05;32.75;;;205.60;2252.80;;;;;;5008035;28;20022;-54
2021/11/14 00:44:20;;;;;;;65.05;40.05;;;205.50;2252.80;;;;;;5008669;28;20036;-56
2021/11/14 00:46:47;;;;;;;82.28;52.38;;;205.50;2252.80;;;;;;5008725;28;20443;-56
2021/11/14 00:49:13;;;;;;;90.07;52.10;;;205.50;2252.80;;;;;;5008563;28;20025;-56
2021/11/14 00:51:39;;;;;;;69.97;43.88;;;205.40;2252.80;;;;;;5008667;28;20096;-56
2021/11/14 00:54:06;;;;;;;69.55;44.45;;;205.50;2252.80;;;;;;5009687;28;20044;-56
2021/11/14 00:56:32;;;;;;;105.88;66.55;;;205.50;2252.80;;;;;;5010151;28;20034;-56
2021/11/14 00:58:58;;;;;;;162.68;94.80;;;205.60;2252.80;;;;;;5010241;28;20033;-56
2021/11/14 01:01:25;;;;;;;241.05;138.93;;;205.60;2252.80;;;;;;5009782;28;20108;-56
2021/11/14 01:03:52;;;;;;;234.75;138.23;;;205.70;2252.80;;;;;;5014332;28;20566;-55
2021/11/14 01:06:18;;;;;;;169.18;102.88;;;205.70;2252.80;;;;;;5018414;28;20502;-55
2021/11/14 01:08:44;;;;;;;178.88;104.65;;;205.70;2252.80;;;;;;5021554;28;20365;-56
2021/11/14 01:11:11;;;;;;;171.48;103.70;;;205.70;2252.80;;;;;;5021399;28;20060;-56
2021/11/14 01:13:38;;;;;;;203.25;127.07;;;205.70;2252.80;;;;;;5032422;28;20353;-55
2021/11/14 01:16:06;;;;;;;156.57;95.55;;;205.70;2252.80;;;;;;5032089;28;20029;-56
2021/11/14 01:18:32;;;;;;;104.90;69.70;;;205.70;2252.80;;;;;;5032326;28;20100;-56
2021/11/14 01:21:03;;;;;;;80.15;50.90;;;205.60;2252.80;;;;;;5032551;28;20037;-57
2021/11/14 01:23:30;;;;;;;120.53;69.40;;;205.60;2252.80;;;;;;5030005;28;20026;-56
2021/11/14 01:25:56;;;;;;;142.13;89.78;;;230.50;2252.80;;;;;;5032203;28;20376;-56
2021/11/14 01:28:24;;;;;;;108.93;68.90;;;205.70;2252.80;;;;;;5021088;28;20065;-55
2021/11/14 01:30:52;;;;;;;89.47;56.63;;;205.60;2252.80;;;;;;5031832;28;20032;-56
2021/11/14 01:33:20;;;;;;;166.45;106.68;;;205.50;2252.80;;;;;;5032223;28;20068;-57
2021/11/14 01:35:46;;;;;;;128.70;86.72;;;205.20;2252.80;;;;;;5021104;28;20048;-56
2021/11/14 01:38:13;;;;;;;162.90;104.57;;;205.10;2252.80;;;;;;5022315;28;20028;-56
2021/11/14 01:40:41;;;;;;;150.45;97.05;;;204.90;2252.80;;;;;;5022742;28;20041;-55
2021/11/14 01:43:10;;;;;;;186.35;121.18;;;205.00;2252.80;;;;;;5029282;28;20374;-55
2021/11/14 01:45:37;;;;;;;201.65;130.73;;;205.10;2252.80;;;;;;5021771;28;20376;-56
2021/11/14 01:48:04;;;;;;;188.43;126.72;;;205.20;2252.80;;;;;;5022885;28;20118;-56
2021/11/14 01:50:30;;;;;;;186.88;124.25;;;205.20;2252.80;;;;;;5021296;28;20041;-56
2021/11/14 01:52:56;;;;;;;202.57;132.77;;;205.20;2252.80;;;;;;5021991;28;20107;-55
2021/11/14 01:55:25;;;;;;;189.95;126.50;;;205.20;2252.80;;;;;;5022473;28;20034;-56
2021/11/14 01:57:52;;;;;;;154.23;107.35;;;205.00;2252.80;;;;;;5029206;28;20029;-57
2021/11/14 02:00:30;;;;;;;158.55;101.03;;;204.80;2252.80;;;;;;5031302;28;20088;-55
2021/11/14 02:02:57;;;;;;;144.02;99.03;;;205.00;2252.80;;;;;;5031144;28;20032;-56
2021/11/14 02:05:25;;;;;;;135.93;89.75;;;205.00;2252.80;;;;;;5032668;28;20033;-56
2021/11/14 02:07:53;;;;;;;140.73;93.15;;;204.90;2252.80;;;;;;5032652;28;20075;-56
2021/11/14 02:10:21;;;;;;;185.13;110.35;;;204.90;2252.80;;;;;;5032766;28;20033;-56
2021/11/14 02:12:47;;;;;;;248.93;161.75;;;204.90;2252.80;;;;;;5032381;28;20033;-56
2021/11/14 02:15:12;;;;;;;110.10;71.80;;;204.90;2252.80;;;;;;5032401;28;20033;-56
2021/11/14 02:17:39;;;;;;;103.75;59.15;;;204.90;2252.80;;;;;;5032542;28;20030;-56
2021/11/14 02:20:07;;;;;;;94.22;53.10;;;205.00;2252.80;;;;;;5032410;28;20033;-56
2021/11/14 02:22:33;;;;;;;79.60;49.92;;;205.00;2252.80;;;;;;5032424;28;20071;-56
2021/11/14 02:24:59;;;;;;;71.78;46.08;;;205.10;2252.80;;;;;;5032802;28;20480;-56
2021/11/14 02:27:25;;;;;;;144.60;98.07;;;205.10;2252.80;;;;;;5032217;28;20380;-56
2021/11/14 02:29:51;;;;;;;80.45;54.20;;;205.10;2252.80;;;;;;5032303;28;20041;-56
2021/11/14 02:32:16;;;;;;;77.97;51.47;;;205.10;2252.80;;;;;;5032639;28;20495;-56
2021/11/14 02:34:42;;;;;;;54.67;39.00;;;205.00;2252.80;;;;;;5032003;28;20034;-56
2021/11/14 02:37:08;;;;;;;77.65;51.55;;;205.00;2252.80;;;;;;5032389;28;20032;-55
2021/11/14 02:39:34;;;;;;;104.97;68.95;;;205.00;2252.80;;;;;;5032194;28;20029;-56
2021/11/14 02:42:01;;;;;;;90.82;59.88;;;204.90;2252.80;;;;;;5032242;28;20387;-56
2021/11/14 02:44:28;;;;;;;72.03;42.95;;;204.90;2252.80;;;;;;5032358;28;20376;-56
2021/11/14 02:46:55;;;;;;;60.63;41.10;;;204.80;2252.80;;;;;;5032159;28;20387;-56
2021/11/14 02:49:21;;;;;;;52.47;35.22;;;204.80;2252.80;;;;;;5032107;28;20064;-56
2021/11/14 02:51:47;;;;;;;48.80;33.72;;;204.80;2252.80;;;;;;5031978;28;20053;-55
2021/11/14 02:54:13;;;;;;;57.53;37.83;;;180.10;2252.80;;;;;;5031754;28;20041;-56
2021/11/14 02:56:39;;;;;;;85.63;52.08;;;180.00;2252.80;;;;;;5031832;28;20029;-56
2021/11/14 02:59:05;;;;;;;83.55;49.60;;;179.90;2252.80;;;;;;5031431;28;20030;-56
2021/11/14 03:01:42;;;;;;;60.97;41.80;;;179.90;2252.80;;;;;;5031517;28;20137;-57
2021/11/14 03:04:14;;;;;;;88.88;55.20;;;179.80;2252.80;;;;;;5031730;28;20060;-56
2021/11/14 03:06:41;;;;;;;63.75;39.80;;;179.70;2252.80;;;;;;5031950;28;20475;-55
2021/11/14 03:09:07;;;;;;;53.90;32.35;;;179.80;2252.80;;;;;;5031590;28;20461;-55
2021/11/14 03:11:33;;;;;;;71.30;49.60;;;179.80;2252.80;;;;;;5031228;28;20033;-56
2021/11/14 03:13:59;;;;;;;70.75;48.35;;;179.90;2252.80;;;;;;5031857;28;20041;-56
2021/11/14 03:16:26;;;;;;;55.78;39.53;;;180.00;2252.80;;;;;;5031227;28;20476;-58
2021/11/14 03:18:54;;;;;;;45.70;33.30;;;180.00;2252.80;;;;;;5031535;28;20116;-57
2021/11/14 03:21:20;;;;;;;64.90;40.55;;;179.90;2252.80;;;;;;5031441;28;20468;-56
2021/11/14 03:23:46;;;;;;;56.25;37.75;;;205.00;2252.80;;;;;;5031077;28;20036;-56
2021/11/14 03:26:12;;;;;;;60.50;40.13;;;180.10;2252.80;;;;;;5030472;28;20030;-57
2021/11/14 03:28:37;;;;;;;49.22;34.05;;;180.00;2252.80;;;;;;5031092;28;20040;-55
2021/11/14 03:31:04;;;;;;;58.85;36.28;;;179.90;2252.80;;;;;;5030996;28;20033;-56
2021/11/14 03:33:30;;;;;;;49.47;33.55;;;179.80;2252.80;;;;;;5031159;28;20030;-55
2021/11/14 03:36:09;;;;;;;49.80;33.10;;;179.70;2252.80;;;;;;5031408;28;20458;-56
2021/11/14 03:38:47;;;;;;;55.20;34.35;;;179.50;2252.80;;;;;;5031009;28;20033;-56
2021/11/14 03:41:19;;;;;;;52.63;35.20;;;179.40;2252.80;;;;;;5030846;28;20056;-56
2021/11/14 03:43:46;;;;;;;52.13;31.40;;;179.40;2252.80;;;;;;5029653;28;20030;-56
2021/11/14 03:46:13;;;;;;;40.78;28.92;;;179.40;2252.80;;;;;;5030979;28;20412;-57
2021/11/14 03:48:42;;;;;;;50.38;28.20;;;179.50;2252.80;;;;;;5030855;28;20028;-55
2021/11/14 03:51:11;;;;;;;40.00;24.88;;;179.50;2252.80;;;;;;5030851;28;20029;-56
2021/11/14 03:53:37;;;;;;;34.70;22.48;;;179.50;2252.80;;;;;;5030856;28;20017;-56
2021/11/14 03:56:04;;;;;;;35.08;22.13;;;179.50;2252.80;;;;;;5030711;28;20084;-56
2021/11/14 03:58:31;;;;;;;37.42;22.98;;;179.60;2252.80;;;;;;5031116;28;20447;-56
2021/11/14 04:01:03;;;;;;;34.15;21.88;;;179.40;2252.80;;;;;;5030477;28;20046;-55
2021/11/14 04:03:30;;;;;;;31.35;20.67;;;179.20;2252.80;;;;;;5030725;28;20518;-56
2021/11/14 04:05:56;;;;;;;40.20;31.85;;;179.20;2252.80;;;;;;5030615;28;20029;-56
2021/11/14 04:08:25;;;;;;;32.05;20.58;;;179.20;2252.80;;;;;;5030311;28;20053;-56
2021/11/14 04:10:53;;;;;;;46.25;34.45;;;179.30;2252.80;;;;;;5030344;28;20017;-56
2021/11/14 04:13:19;;;;;;;35.58;25.35;;;179.40;2252.80;;;;;;5030511;28;20110;-54
2021/11/14 04:15:46;;;;;;;56.63;37.63;;;179.40;2252.80;;;;;;5030290;28;20044;-55
2021/11/14 04:18:12;;;;;;;39.92;24.88;;;179.50;2252.80;;;;;;5030282;28;20100;-56
2021/11/14 04:20:41;;;;;;;32.88;20.20;;;179.50;2252.80;;;;;;5030418;28;20104;-56
2021/11/14 04:23:09;;;;;;;30.10;23.00;;;179.50;2252.80;;;;;;5030291;28;20022;-55
2021/11/14 04:25:35;;;;;;;50.40;32.95;;;179.50;2252.80;;;;;;5030408;28;20029;-56
2021/11/14 04:28:01;;;;;;;35.83;26.05;;;179.50;2252.80;;;;;;5030374;28;20105;-56
2021/11/14 04:30:27;;;;;;;33.88;25.10;;;179.60;2252.80;;;;;;5030412;28;20698;-55
2021/11/14 04:32:55;;;;;;;35.13;26.73;;;179.50;2252.80;;;;;;5030113;28;20069;-56
2021/11/14 04:35:22;;;;;;;32.40;21.50;;;179.50;2252.80;;;;;;5030103;28;20120;-56
2021/11/14 04:37:51;;;;;;;31.48;19.48;;;179.50;2252.80;;;;;;5030143;28;20029;-55
2021/11/14 04:40:20;;;;;;;33.60;21.52;;;179.60;2252.80;;;;;;5030232;28;20357;-56
2021/11/14 04:42:47;;;;;;;47.28;29.27;;;179.50;2252.80;;;;;;5030017;28;20372;-56
2021/11/14 04:45:13;;;;;;;44.28;31.73;;;179.60;2252.80;;;;;;5030054;28;20036;-56
2021/11/14 04:47:39;;;;;;;45.67;29.05;;;179.60;2252.80;;;;;;5030079;28;20431;-55
2021/11/14 04:50:10;;;;;;;44.88;36.35;;;179.60;2252.80;;;;;;5029830;28;20387;-56
2021/11/14 04:52:36;;;;;;;37.88;23.33;;;179.60;2252.80;;;;;;5029760;28;20484;-56
2021/11/14 04:55:03;;;;;;;43.55;28.92;;;179.40;2252.80;;;;;;5029635;28;20064;-56
2021/11/14 04:57:29;;;;;;;33.10;23.77;;;179.40;2252.80;;;;;;5030111;28;20065;-56
2021/11/14 04:59:55;;;;;;;33.40;21.77;;;179.50;2252.80;;;;;;5029516;28;20045;-55
2021/11/14 05:02:20;;;;;;;37.17;27.48;;;179.40;2252.80;;;;;;5030010;28;20249;-56
2021/11/14 05:04:47;;;;;;;42.15;31.13;;;179.40;2252.80;;;;;;5029953;28;20387;-55
2021/11/14 05:07:14;;;;;;;28.50;19.38;;;179.40;2252.80;;;;;;5029642;28;20480;-56
2021/11/14 05:09:40;;;;;;;35.00;23.10;;;179.40;2252.80;;;;;;5030075;28;20083;-56
2021/11/14 05:12:07;;;;;;;35.22;24.38;;;179.40;2252.80;;;;;;5029591;28;20410;-54
2021/11/14 05:14:33;;;;;;;35.33;23.70;;;179.20;2252.80;;;;;;5029663;28;20061;-55
2021/11/14 05:16:58;;;;;;;39.03;27.77;;;179.20;2252.80;;;;;;5029944;28;20427;-56
2021/11/14 05:19:24;;;;;;;46.90;37.85;;;179.20;2252.80;;;;;;5029466;28;20022;-56
2021/11/14 05:21:50;;;;;;;37.58;26.45;;;179.20;2252.80;;;;;;5029669;28;20109;-56
2021/11/14 05:24:16;;;;;;;40.20;26.88;;;179.20;2252.80;;;;;;5029770;28;20025;-56
2021/11/14 05:26:42;;;;;;;40.25;26.08;;;179.30;2252.80;;;;;;5029394;28;20032;-56
2021/11/14 05:29:08;;;;;;;42.42;25.60;;;179.20;2252.80;;;;;;5029634;28;20025;-55
2021/11/14 05:31:33;;;;;;;44.17;31.35;;;179.20;2252.80;;;;;;5029492;28;20029;-55
2021/11/14 05:33:59;;;;;;;34.08;22.50;;;179.20;2252.80;;;;;;5029726;28;20037;-55
2021/11/14 05:36:26;;;;;;;35.00;22.15;;;154.30;2252.80;;;;;;5029456;28;20093;-56
2021/11/14 05:38:52;;;;;;;56.28;26.52;;;154.40;2252.80;;;;;;5029445;28;20082;-55
2021/11/14 05:41:19;;;;;;;47.22;42.08;;;154.40;2252.80;;;;;;5029675;28;20033;-56
2021/11/14 05:43:45;;;;;;;69.90;50.80;;;154.50;2252.80;;;;;;5029450;28;20111;-56
2021/11/14 05:46:11;;;;;;;91.15;57.75;;;179.30;2252.80;;;;;;5029528;28;20487;-56
2021/11/14 05:48:37;;;;;;;35.40;24.60;;;179.40;2252.80;;;;;;5031132;28;20029;-55
2021/11/14 05:51:03;;;;;;;38.50;24.75;;;179.50;2252.80;;;;;;5032925;28;20029;-56
2021/11/14 05:53:29;;;;;;;42.58;24.15;;;179.60;2252.80;;;;;;5033231;28;20033;-56
2021/11/14 05:55:55;;;;;;;34.38;23.48;;;179.70;2252.80;;;;;;5032819;28;20033;-53
2021/11/14 05:58:38;;;;;;;43.35;29.70;;;179.60;2252.80;;;;;;5033103;28;20021;-55
2021/11/14 06:03:54;;;;;;;47.55;34.35;;;179.80;2252.80;;;;;;5032766;28;20029;-56
2021/11/14 06:06:19;;;;;;;46.17;29.48;;;179.90;2252.80;;;;;;5032840;28;20455;-56
2021/11/14 06:08:46;;;;;;;57.60;34.28;;;180.00;2252.80;;;;;;5032890;28;20403;-56
2021/11/14 06:11:11;;;;;;;74.10;44.67;;;180.10;2252.80;;;;;;5032655;28;20029;-55
2021/11/14 06:13:37;;;;;;;135.30;89.45;;;204.80;2252.80;;;;;;5032618;28;20393;-56
2021/11/14 06:16:04;;;;;;;97.15;61.22;;;204.90;2252.80;;;;;;5032461;28;20041;-56
2021/11/14 06:18:30;;;;;;;91.88;58.53;;;204.90;2252.80;;;;;;5032643;28;20025;-56
2021/11/14 06:21:00;;;;;;;95.80;63.67;;;205.00;2252.80;;;;;;5032936;28;20075;-56
2021/11/14 06:23:26;;;;;;;56.47;35.70;;;205.10;2252.80;;;;;;5032790;28;20101;-56
2021/11/14 06:25:52;;;;;;;41.20;28.23;;;205.20;2252.80;;;;;;5032474;28;20056;-55
2021/11/14 06:28:18;;;;;;;47.38;27.92;;;205.20;2252.80;;;;;;5032350;28;20083;-56
2021/11/14 06:30:45;;;;;;;42.20;33.45;;;205.30;2252.80;;;;;;5032119;28;20025;-56
2021/11/14 06:33:11;;;;;;;43.88;29.55;;;205.20;2252.80;;;;;;5032372;28;20045;-55
2021/11/14 06:35:36;;;;;;;33.15;21.38;;;205.00;2252.80;;;;;;5032431;28;20037;-55
2021/11/14 06:38:03;;;;;;;37.40;25.20;;;204.90;2252.80;;;;;;5032103;28;20074;-56
2021/11/14 06:40:29;;;;;;;32.70;23.33;;;179.90;2252.80;;;;;;5032349;28;20111;-56
2021/11/14 06:42:55;;;;;;;40.00;28.67;;;179.90;2252.80;;;;;;5032092;28;20111;-55
2021/11/14 06:45:20;;;;;;;36.97;23.55;;;179.90;2252.80;;;;;;5032236;28;20754;-55
2021/11/14 06:47:47;;;;;;;41.88;30.52;;;179.80;2252.80;;;;;;5032264;28;20100;-55
2021/11/14 06:50:13;;;;;;;55.60;38.15;;;180.00;2252.80;;;;;;5032157;28;20030;-55
2021/11/14 06:52:41;;;;;;;34.95;22.35;;;180.10;2252.80;;;;;;5031945;28;20475;-55
2021/11/14 06:55:09;;;;;;;29.30;20.58;;;204.80;2252.80;;;;;;5032046;28;20065;-57
2021/11/14 06:57:35;;;;;;;27.58;20.48;;;205.00;2252.80;;;;;;5031754;28;20021;-56
2021/11/14 07:00:03;;;;;;;43.65;25.77;;;204.80;2252.80;;;;;;5030452;28;20075;-56
2021/11/14 07:02:28;;;;;;;32.67;21.52;;;205.00;2252.80;;;;;;5032044;28;20113;-56
2021/11/14 07:04:54;;;;;;;32.20;21.98;;;205.20;2252.80;;;;;;5031540;28;20116;-55
2021/11/14 07:07:20;;;;;;;28.70;20.05;;;205.40;2252.80;;;;;;5031941;28;20060;-55
2021/11/14 07:09:45;;;;;;;33.80;25.02;;;205.50;2252.80;;;;;;5031524;28;20084;-56
2021/11/14 07:12:11;;;;;;;41.78;22.88;;;205.70;2252.80;;;;;;5031425;28;20033;-57
2021/11/14 07:14:37;;;;;;;36.33;23.65;;;205.70;2252.80;;;;;;5031688;28;20043;-55
2021/11/14 07:17:03;;;;;;;32.03;22.58;;;205.70;2252.80;;;;;;5031403;28;20038;-56
2021/11/14 07:19:29;;;;;;;30.60;21.90;;;230.50;2252.80;;;;;;5031595;28;20116;-55
2021/11/14 07:21:56;;;;;;;40.80;25.95;;;230.60;2252.80;;;;;;5031134;28;20125;-55
2021/11/14 07:24:23;;;;;;;34.90;23.27;;;230.70;2252.80;;;;;;5031250;28;20060;-56
2021/11/14 07:26:49;;;;;;;37.50;25.05;;;230.90;2252.80;;;;;;5031282;28;20029;-56
2021/11/14 07:29:15;;;;;;;38.80;27.83;;;230.90;2252.80;;;;;;5031021;28;20476;-55
2021/11/14 07:31:41;;;;;;;49.33;38.15;;;231.10;2252.80;;;;;;5031098;28;20033;-56
2021/11/14 07:34:07;;;;;;;50.72;37.47;;;256.50;2252.80;;;;;;5031090;28;20168;-56
2021/11/14 07:36:33;;;;;;;49.53;39.80;;;282.20;2278.40;;;;;;5031075;28;20029;-57
2021/11/14 07:38:59;;;;;;;175.75;141.00;;;307.80;2304.00;;;;;;5031475;28;20026;-56
2021/11/14 07:41:25;;;;;;;266.80;204.88;;;332.90;2329.60;;;;;;5030900;28;20096;-56
2021/11/14 07:43:51;;;;;;;275.20;214.95;;;332.90;2329.60;;;;;;5031086;28;20029;-56
2021/11/14 07:46:17;;;;;;;268.33;205.88;;;333.10;2329.60;;;;;;5031085;28;20406;-56
2021/11/14 07:48:43;;;;;;;267.67;204.23;;;333.10;2329.60;;;;;;5030716;28;20507;-56
2021/11/14 07:51:10;;;;;;;238.40;189.23;;;333.40;2329.60;;;;;;5030843;28;20052;-56
2021/11/14 07:53:36;;;;;;;175.52;138.13;;;333.30;2329.60;;;;;;5030862;28;20025;-56
2021/11/14 07:56:03;;;;;;;179.02;145.88;;;333.40;2329.60;;;;;;5030797;28;20116;-56
2021/11/14 07:58:28;;;;;;;195.50;162.80;;;358.50;2329.60;;;;;;5031020;28;20048;-57
2021/11/14 08:00:55;;;;;;;122.88;108.20;;;359.10;2329.60;;;;;;5030236;28;20519;-56
2021/11/14 08:03:23;;;;;;;118.78;95.18;;;359.20;2329.60;;;;;;5030592;28;20037;-57
2021/11/14 08:05:49;;;;;;;125.95;107.38;;;384.10;2329.60;;;;;;5030699;28;20021;-56
2021/11/14 08:08:15;;;;;;;105.65;94.10;;;384.20;2329.60;;;;;;5030511;28;20065;-56
2021/11/14 08:10:41;;;;;;;117.68;104.70;;;384.60;2329.60;;;;;;5030182;28;20088;-56
2021/11/14 08:13:08;;;;;;;116.30;103.78;;;384.30;2329.60;;;;;;5030676;28;20120;-56
2021/11/14 08:15:35;;;;;;;113.40;94.53;;;384.20;2329.60;;;;;;5030282;28;20495;-56
2021/11/14 08:18:01;;;;;;;114.32;99.93;;;359.30;2329.60;;;;;;5030331;28;20144;-57
2021/11/14 08:20:27;;;;;;;131.20;117.07;;;384.00;2329.60;;;;;;5030637;28;20030;-56
2021/11/14 08:22:59;;;;;;;141.18;126.03;;;359.30;2329.60;;;;;;5030190;28;20064;-56
2021/11/14 08:25:27;;;;;;;108.43;96.60;;;384.80;2329.60;;;;;;5030366;28;20071;-55
2021/11/14 08:27:52;;;;;;;110.00;96.47;;;409.60;2355.20;;;;;;5030035;28;20025;-54
2021/11/14 08:30:19;;;;;;;96.47;86.05;;;409.60;2355.20;;;;;;5030345;28;20033;-56
2021/11/14 08:32:46;;;;;;;89.05;79.40;;;384.80;2329.60;;;;;;5030212;28;20036;-57
2021/11/14 08:35:12;;;;;;;104.10;92.50;;;410.10;2355.20;;;;;;5029941;28;20487;-55
2021/11/14 08:37:38;;;;;;;100.65;89.68;;;410.50;2355.20;;;;;;5030459;28;20032;-57
2021/11/14 08:40:06;;;;;;;97.35;86.72;;;410.40;2355.20;;;;;;5030163;28;20030;-56
2021/11/14 08:42:32;;;;;;;98.43;86.55;;;410.50;2355.20;;;;;;5030061;28;20026;-57
2021/11/14 08:44:58;;;;;;;98.40;88.32;;;436.10;2278.40;;;;;;5030182;28;20491;-56
2021/11/14 08:47:24;;;;;;;99.15;88.97;;;461.60;2252.80;;;;;;5029934;28;20071;-55
2021/11/14 08:49:50;;;;;;;99.40;88.90;;;461.20;2201.60;;;;;;5030595;28;20033;-55
2021/11/14 08:52:16;;;;;;;106.88;95.72;;;461.70;2150.40;;;;;;5030093;28;20032;-57
2021/11/14 08:54:42;;;;;;;99.75;88.88;;;461.70;2176.00;;;;;;5028577;28;20102;-58
2021/11/14 08:57:10;;;;;;;110.07;98.35;;;461.10;2150.40;;;;;;5028633;28;20040;-57
2021/11/14 08:59:37;;;;;;;104.18;93.20;;;461.20;2124.80;;;;;;5028647;28;20033;-63
2021/11/14 09:02:03;;;;;;;104.22;93.32;;;460.80;2176.00;;;;;;5029754;28;20108;-65
2021/11/14 09:04:29;;;;;;;110.57;99.38;;;486.50;2099.20;;;;;;5029994;28;20076;-60
2021/11/14 09:06:55;;;;;;;109.57;98.25;;;486.40;2099.20;;;;;;5029973;28;20091;-60
2021/11/14 09:09:22;;;;;;;104.30;93.35;;;512.00;1996.80;;;;;;5030116;28;20480;-60
2021/11/14 09:11:49;;;;;;;101.28;90.75;;;487.00;1996.80;;;;;;5029894;28;20020;-60
2021/11/14 09:14:16;;;;;;;101.93;91.35;;;486.70;2048.00;;;;;;5029636;28;20033;-60
2021/11/14 09:16:42;;;;;;;106.72;95.95;;;487.00;2022.40;;;;;;5029604;28;20543;-59
2021/11/14 09:19:09;;;;;;;103.55;92.70;;;487.30;1971.20;;;;;;5029757;28;20029;-60
2021/11/14 09:21:36;;;;;;;116.32;104.35;;;512.20;1945.60;;;;;;5029824;28;20028;-60
2021/11/14 09:24:02;;;;;;;117.47;105.72;;;512.90;1894.40;;;;;;5032096;28;20100;-60
2021/11/14 09:26:28;;;;;;;112.88;101.55;;;537.80;1920.00;;;;;;5033948;28;20113;-62
2021/11/14 09:28:54;;;;;;;110.30;99.30;;;512.60;1894.40;;;;;;5033235;28;20038;-62
2021/11/14 09:31:19;;;;;;;113.05;101.55;;;537.60;1920.00;;;;;;5033579;28;20378;-62
2021/11/14 09:33:45;;;;;;;125.47;112.80;;;512.30;1920.00;;;;;;5033090;28;20025;-62
2021/11/14 09:36:11;;;;;;;104.70;93.80;;;487.10;1971.20;;;;;;5033229;28;20463;-62
2021/11/14 09:38:38;;;;;;;109.45;98.43;;;486.50;1996.80;;;;;;5033603;28;20083;-62
2021/11/14 09:41:06;;;;;;;106.15;95.22;;;461.20;2048.00;;;;;;5031269;28;20025;-61
2021/11/14 09:43:33;;;;;;;83.88;75.38;;;461.40;2073.60;;;;;;5031565;28;20463;-61
2021/11/14 09:45:59;;;;;;;110.40;98.85;;;461.10;2048.00;;;;;;5031775;28;20025;-62
2021/11/14 09:48:26;;;;;;;103.45;92.57;;;460.90;2073.60;;;;;;5031634;28;20037;-62
2021/11/14 09:50:56;;;;;;;124.65;111.82;;;486.40;2022.40;;;;;;5031373;28;20028;-62
2021/11/14 09:53:27;;;;;;;118.35;106.10;;;461.50;2022.40;;;;;;5031108;28;20025;-62
2021/11/14 09:55:53;;;;;;;111.60;93.10;;;461.40;2073.60;;;;;;5031140;28;20044;-61
2021/11/14 09:58:21;;;;;;;109.47;97.32;;;435.60;2150.40;;;;;;5031330;28;20481;-61
2021/11/14 10:00:47;;;;;;;114.10;101.65;;;435.20;2201.60;;;;;;5031120;28;20092;-60
2021/11/14 10:03:13;;;;;;;117.25;100.07;;;410.50;2252.80;;;;;;5031096;28;20053;-61
2021/11/14 10:05:39;;;;;;;112.50;98.72;;;409.90;2304.00;;;;;;5031349;28;20080;-60
2021/11/14 10:08:07;;;;;;;120.47;98.95;;;384.80;2329.60;;;;;;5030790;28;20041;-61
2021/11/14 10:10:45;;;;;;;129.07;106.18;;;384.20;2329.60;;;;;;5031164;28;20431;-61
2021/11/14 10:13:29;;;;;;;138.65;106.60;;;384.40;2329.60;;;;;;5031058;28;20060;-61
2021/11/14 10:16:21;;;;;;;123.68;99.32;;;384.40;2329.60;;;;;;5030782;28;20064;-61
2021/11/14 10:18:54;;;;;;;112.00;86.05;;;384.10;2329.60;;;;;;5031228;28;20014;-61
2021/11/14 10:21:23;;;;;;;105.95;86.85;;;384.00;2329.60;;;;;;5030535;28;20112;-62
2021/11/14 10:23:50;;;;;;;109.70;88.20;;;359.30;2329.60;;;;;;5031063;28;20532;-62
2021/11/14 10:26:16;;;;;;;107.82;86.30;;;359.00;2329.60;;;;;;5030975;28;20030;-61
2021/11/14 10:28:47;;;;;;;97.72;77.55;;;359.00;2329.60;;;;;;5030483;28;20487;-61
2021/11/14 10:31:15;;;;;;;108.15;83.82;;;359.30;2329.60;;;;;;5030675;28;20046;-61
2021/11/14 10:33:41;;;;;;;96.25;68.10;;;359.30;2329.60;;;;;;5030176;28;20023;-61
2021/11/14 10:36:07;;;;;;;84.05;61.03;;;359.10;2329.60;;;;;;5030778;28;20038;-61
2021/11/14 10:38:38;;;;;;;82.88;64.65;;;358.80;2329.60;;;;;;5030639;28;20361;-61
2021/11/14 10:41:10;;;;;;;93.22;67.95;;;358.50;2329.60;;;;;;5030347;28;20044;-61
2021/11/14 10:43:40;;;;;;;92.50;76.32;;;358.40;2329.60;;;;;;5030652;28;20021;-61
2021/11/14 10:46:15;;;;;;;83.60;60.83;;;358.40;2329.60;;;;;;5030402;28;20017;-61
2021/11/14 10:48:41;;;;;;;79.95;59.78;;;358.40;2329.60;;;;;;5030237;28;20025;-62
2021/11/14 10:51:11;;;;;;;81.88;58.15;;;358.90;2329.60;;;;;;5030502;28;20116;-61
2021/11/14 10:53:38;;;;;;;78.55;61.38;;;358.90;2329.60;;;;;;5031560;28;20033;-61
2021/11/14 10:56:07;;;;;;;76.40;53.97;;;358.80;2329.60;;;;;;5031989;28;20041;-61
2021/11/14 10:58:33;;;;;;;70.13;51.08;;;358.70;2329.60;;;;;;5031705;28;20033;-61
2021/11/14 11:01:06;;;;;;;78.88;60.25;;;358.60;2329.60;;;;;;5031964;28;20054;-61
2021/11/14 11:03:45;;;;;;;75.05;56.03;;;358.50;2329.60;;;;;;5031840;28;20026;-61
2021/11/14 11:06:23;;;;;;;80.88;58.40;;;358.90;2329.60;;;;;;5031585;28;20104;-61
2021/11/14 11:08:49;;;;;;;143.20;98.82;;;359.10;2329.60;;;;;;5031713;28;20057;-61
2021/11/14 11:11:20;;;;;;;90.53;70.20;;;359.00;2329.60;;;;;;5031879;28;20387;-60
2021/11/14 11:13:48;;;;;;;82.88;61.85;;;359.00;2329.60;;;;;;5031673;28;20044;-61
2021/11/14 11:16:20;;;;;;;83.18;63.95;;;359.00;2329.60;;;;;;5031515;28;20025;-61
2021/11/14 11:19:05;;;;;;;80.13;60.28;;;359.10;2329.60;;;;;;5031427;28;20025;-61
2021/11/14 11:21:34;;;;;;;66.70;49.20;;;359.20;2329.60;;;;;;5031507;28;20026;-61
2021/11/14 11:24:19;;;;;;;62.78;50.60;;;359.10;2329.60;;;;;;5031278;28;20033;-61
2021/11/14 11:27:06;;;;;;;73.75;55.08;;;359.00;2329.60;;;;;;5031180;28;20029;-60
2021/11/14 11:29:35;;;;;;;80.13;59.45;;;359.10;2329.60;;;;;;5031027;28;20033;-61
2021/11/14 11:32:05;;;;;;;68.63;49.15;;;384.00;2329.60;;;;;;5031230;28;20025;-61
2021/11/14 11:34:31;;;;;;;113.05;84.95;;;384.00;2329.60;;;;;;5031264;28;20037;-61
2021/11/14 11:36:57;;;;;;;246.75;172.63;;;359.20;2329.60;;;;;;5031399;28;20075;-61
2021/11/14 11:39:24;;;;;;;78.72;57.92;;;384.00;2329.60;;;;;;5030895;28;20071;-61
2021/11/14 11:41:51;;;;;;;71.60;51.50;;;359.20;2329.60;;;;;;5030986;28;20056;-61
2021/11/14 11:44:18;;;;;;;59.17;46.25;;;384.00;2329.60;;;;;;5030931;28;20606;-60
2021/11/14 11:46:51;;;;;;;72.00;54.65;;;384.00;2329.60;;;;;;5030247;28;20030;-60
2021/11/14 11:49:27;;;;;;;64.07;48.38;;;384.00;2329.60;;;;;;5031163;28;20022;-61
2021/11/14 11:51:55;;;;;;;61.13;48.97;;;384.00;2329.60;;;;;;5030787;28;20022;-62
2021/11/14 11:54:26;;;;;;;60.20;48.00;;;359.30;2329.60;;;;;;5030738;28;20120;-63
2021/11/14 11:57:10;;;;;;;61.67;46.88;;;384.00;2329.60;;;;;;5027731;28;20025;-61